sensor_id;sensor_type;location;lat;lon;timestamp;P1;durP1;ratioP1;P2;durP2;ratioP2
25583;SDS011;13463;51.526;9.928;2024-01-30T00:02:18;21.77;;;13.52;;
25583;SDS011;13463;51.526;9.928;2024-01-30T00:04:45;19.23;;;11.20;;
25583;SDS011;13463;51.526;9.928;2024-01-30T00:07:11;21.42;;;11.90;;
25583;SDS011;13463;51.526;9.928;2024-01-30T00:09:38;19.98;;;12.13;;
25583;SDS011;13463;51.526;9.928;2024-01-30T00:12:06;17.98;;;11.30;;
25583;SDS011;13463;51.526;9.928;2024-01-30T00:14:33;18.98;;;10.93;;
25583;SDS011;13463;51.526;9.928;2024-01-30T00:16:59;19.83;;;12.38;;
25583;SDS011;13463;51.526;9.928;2024-01-30T00:19:26;18.35;;;11.48;;
25583;SDS011;13463;51.526;9.928;2024-01-30T00:21:53;17.05;;;11.60;;
25583;SDS011;13463;51.526;9.928;2024-01-30T00:24:19;18.85;;;11.60;;
25583;SDS011;13463;51.526;9.928;2024-01-30T00:26:46;15.27;;;10.95;;
25583;SDS011;13463;51.526;9.928;2024-01-30T00:29:12;17.88;;;11.05;;
25583;SDS011;13463;51.526;9.928;2024-01-30T00:31:45;25.50;;;12.25;;
25583;SDS011;13463;51.526;9.928;2024-01-30T00:34:12;18.55;;;12.18;;
25583;SDS011;13463;51.526;9.928;2024-01-30T00:36:39;21.38;;;12.07;;
25583;SDS011;13463;51.526;9.928;2024-01-30T00:39:05;16.38;;;11.50;;
25583;SDS011;13463;51.526;9.928;2024-01-30T00:41:34;20.55;;;12.13;;
25583;SDS011;13463;51.526;9.928;2024-01-30T00:44:01;17.40;;;10.98;;
25583;SDS011;13463;51.526;9.928;2024-01-30T00:46:27;22.40;;;12.55;;
25583;SDS011;13463;51.526;9.928;2024-01-30T00:48:54;17.67;;;12.50;;
25583;SDS011;13463;51.526;9.928;2024-01-30T00:51:20;24.90;;;13.73;;
25583;SDS011;13463;51.526;9.928;2024-01-30T00:53:47;20.75;;;12.85;;
25583;SDS011;13463;51.526;9.928;2024-01-30T00:56:13;21.38;;;11.02;;
25583;SDS011;13463;51.526;9.928;2024-01-30T00:58:44;24.50;;;13.40;;
25583;SDS011;13463;51.526;9.928;2024-01-30T01:01:10;29.73;;;13.60;;
25583;SDS011;13463;51.526;9.928;2024-01-30T01:03:37;26.40;;;14.35;;
25583;SDS011;13463;51.526;9.928;2024-01-30T01:06:04;24.63;;;13.57;;
25583;SDS011;13463;51.526;9.928;2024-01-30T01:08:31;21.60;;;12.77;;
25583;SDS011;13463;51.526;9.928;2024-01-30T01:10:57;21.23;;;11.98;;
25583;SDS011;13463;51.526;9.928;2024-01-30T01:13:24;21.60;;;12.90;;
25583;SDS011;13463;51.526;9.928;2024-01-30T01:15:50;21.55;;;12.00;;
25583;SDS011;13463;51.526;9.928;2024-01-30T01:18:17;21.70;;;11.73;;
25583;SDS011;13463;51.526;9.928;2024-01-30T01:20:43;18.52;;;11.18;;
25583;SDS011;13463;51.526;9.928;2024-01-30T01:23:10;18.40;;;10.57;;
25583;SDS011;13463;51.526;9.928;2024-01-30T01:25:37;19.20;;;11.15;;
25583;SDS011;13463;51.526;9.928;2024-01-30T01:28:03;20.40;;;12.65;;
25583;SDS011;13463;51.526;9.928;2024-01-30T01:30:30;15.13;;;9.00;;
25583;SDS011;13463;51.526;9.928;2024-01-30T01:32:57;17.35;;;11.30;;
25583;SDS011;13463;51.526;9.928;2024-01-30T01:35:27;20.35;;;11.10;;
25583;SDS011;13463;51.526;9.928;2024-01-30T01:37:54;20.13;;;11.20;;
25583;SDS011;13463;51.526;9.928;2024-01-30T01:40:22;18.50;;;10.27;;
25583;SDS011;13463;51.526;9.928;2024-01-30T01:42:50;15.05;;;10.88;;
25583;SDS011;13463;51.526;9.928;2024-01-30T01:45:21;17.30;;;10.13;;
25583;SDS011;13463;51.526;9.928;2024-01-30T01:47:49;17.17;;;9.80;;
25583;SDS011;13463;51.526;9.928;2024-01-30T01:50:17;13.30;;;9.30;;
25583;SDS011;13463;51.526;9.928;2024-01-30T01:52:49;16.30;;;9.32;;
25583;SDS011;13463;51.526;9.928;2024-01-30T01:55:16;15.40;;;10.10;;
25583;SDS011;13463;51.526;9.928;2024-01-30T01:57:48;18.48;;;10.70;;
25583;SDS011;13463;51.526;9.928;2024-01-30T02:00:14;14.73;;;10.57;;
25583;SDS011;13463;51.526;9.928;2024-01-30T02:02:42;18.02;;;9.57;;
25583;SDS011;13463;51.526;9.928;2024-01-30T02:05:11;11.25;;;8.13;;
25583;SDS011;13463;51.526;9.928;2024-01-30T02:07:38;16.67;;;9.88;;
25583;SDS011;13463;51.526;9.928;2024-01-30T02:10:05;16.65;;;10.00;;
25583;SDS011;13463;51.526;9.928;2024-01-30T02:12:34;14.82;;;9.02;;
25583;SDS011;13463;51.526;9.928;2024-01-30T02:15:00;15.25;;;9.77;;
25583;SDS011;13463;51.526;9.928;2024-01-30T02:17:27;12.40;;;8.75;;
25583;SDS011;13463;51.526;9.928;2024-01-30T02:19:54;18.23;;;10.35;;
25583;SDS011;13463;51.526;9.928;2024-01-30T02:22:21;14.73;;;10.02;;
25583;SDS011;13463;51.526;9.928;2024-01-30T02:24:48;18.08;;;10.27;;
25583;SDS011;13463;51.526;9.928;2024-01-30T02:27:15;16.05;;;10.52;;
25583;SDS011;13463;51.526;9.928;2024-01-30T02:29:42;16.27;;;10.05;;
25583;SDS011;13463;51.526;9.928;2024-01-30T02:32:08;13.45;;;9.38;;
25583;SDS011;13463;51.526;9.928;2024-01-30T02:34:35;18.02;;;9.50;;
25583;SDS011;13463;51.526;9.928;2024-01-30T02:37:01;15.63;;;9.88;;
25583;SDS011;13463;51.526;9.928;2024-01-30T02:39:28;18.50;;;10.27;;
25583;SDS011;13463;51.526;9.928;2024-01-30T02:41:55;17.88;;;11.25;;
25583;SDS011;13463;51.526;9.928;2024-01-30T02:44:21;14.30;;;9.38;;
25583;SDS011;13463;51.526;9.928;2024-01-30T02:46:48;16.23;;;10.27;;
25583;SDS011;13463;51.526;9.928;2024-01-30T02:49:14;16.42;;;9.68;;
25583;SDS011;13463;51.526;9.928;2024-01-30T02:51:41;16.27;;;10.07;;
25583;SDS011;13463;51.526;9.928;2024-01-30T02:54:08;19.70;;;10.45;;
25583;SDS011;13463;51.526;9.928;2024-01-30T02:56:34;14.75;;;9.43;;
25583;SDS011;13463;51.526;9.928;2024-01-30T02:59:01;18.63;;;10.50;;
25583;SDS011;13463;51.526;9.928;2024-01-30T03:01:27;15.30;;;9.50;;
25583;SDS011;13463;51.526;9.928;2024-01-30T03:03:54;13.63;;;8.90;;
25583;SDS011;13463;51.526;9.928;2024-01-30T03:06:21;18.92;;;9.95;;
25583;SDS011;13463;51.526;9.928;2024-01-30T03:08:49;15.23;;;10.35;;
25583;SDS011;13463;51.526;9.928;2024-01-30T03:11:15;16.98;;;9.50;;
25583;SDS011;13463;51.526;9.928;2024-01-30T03:13:42;19.05;;;11.30;;
25583;SDS011;13463;51.526;9.928;2024-01-30T03:16:08;16.77;;;10.60;;
25583;SDS011;13463;51.526;9.928;2024-01-30T03:18:35;15.30;;;10.63;;
25583;SDS011;13463;51.526;9.928;2024-01-30T03:21:01;17.58;;;10.63;;
25583;SDS011;13463;51.526;9.928;2024-01-30T03:23:28;16.83;;;10.05;;
25583;SDS011;13463;51.526;9.928;2024-01-30T03:25:55;18.20;;;10.45;;
25583;SDS011;13463;51.526;9.928;2024-01-30T03:28:22;21.63;;;10.63;;
25583;SDS011;13463;51.526;9.928;2024-01-30T03:30:48;17.83;;;11.23;;
25583;SDS011;13463;51.526;9.928;2024-01-30T03:33:15;20.80;;;11.35;;
25583;SDS011;13463;51.526;9.928;2024-01-30T03:35:41;16.38;;;11.10;;
25583;SDS011;13463;51.526;9.928;2024-01-30T03:38:09;16.48;;;10.35;;
25583;SDS011;13463;51.526;9.928;2024-01-30T03:40:35;16.75;;;10.23;;
25583;SDS011;13463;51.526;9.928;2024-01-30T03:43:02;19.50;;;10.00;;
25583;SDS011;13463;51.526;9.928;2024-01-30T03:45:28;14.10;;;9.38;;
25583;SDS011;13463;51.526;9.928;2024-01-30T03:47:55;15.18;;;10.00;;
25583;SDS011;13463;51.526;9.928;2024-01-30T03:50:21;14.50;;;10.10;;
25583;SDS011;13463;51.526;9.928;2024-01-30T03:52:48;16.33;;;11.05;;
25583;SDS011;13463;51.526;9.928;2024-01-30T03:55:15;19.00;;;11.43;;
25583;SDS011;13463;51.526;9.928;2024-01-30T03:57:41;14.15;;;9.98;;
25583;SDS011;13463;51.526;9.928;2024-01-30T04:00:08;22.13;;;11.20;;
25583;SDS011;13463;51.526;9.928;2024-01-30T04:02:35;20.10;;;11.18;;
25583;SDS011;13463;51.526;9.928;2024-01-30T04:05:01;14.90;;;9.70;;
25583;SDS011;13463;51.526;9.928;2024-01-30T04:07:28;17.45;;;10.75;;
25583;SDS011;13463;51.526;9.928;2024-01-30T04:09:55;16.17;;;9.93;;
25583;SDS011;13463;51.526;9.928;2024-01-30T04:12:22;13.07;;;9.15;;
25583;SDS011;13463;51.526;9.928;2024-01-30T04:14:48;16.20;;;9.77;;
25583;SDS011;13463;51.526;9.928;2024-01-30T04:17:15;15.15;;;10.68;;
25583;SDS011;13463;51.526;9.928;2024-01-30T04:19:41;16.75;;;9.85;;
25583;SDS011;13463;51.526;9.928;2024-01-30T04:22:08;14.18;;;8.95;;
25583;SDS011;13463;51.526;9.928;2024-01-30T04:24:34;14.02;;;8.80;;
25583;SDS011;13463;51.526;9.928;2024-01-30T04:27:01;15.25;;;9.30;;
25583;SDS011;13463;51.526;9.928;2024-01-30T04:29:28;13.43;;;9.20;;
25583;SDS011;13463;51.526;9.928;2024-01-30T04:31:54;13.98;;;9.32;;
25583;SDS011;13463;51.526;9.928;2024-01-30T04:34:21;13.48;;;8.52;;
25583;SDS011;13463;51.526;9.928;2024-01-30T04:36:47;11.55;;;7.97;;
25583;SDS011;13463;51.526;9.928;2024-01-30T04:39:14;13.18;;;8.27;;
25583;SDS011;13463;51.526;9.928;2024-01-30T04:41:40;14.13;;;8.65;;
25583;SDS011;13463;51.526;9.928;2024-01-30T04:44:07;23.10;;;8.13;;
25583;SDS011;13463;51.526;9.928;2024-01-30T04:46:33;12.05;;;8.00;;
25583;SDS011;13463;51.526;9.928;2024-01-30T04:49:00;16.02;;;7.75;;
25583;SDS011;13463;51.526;9.928;2024-01-30T04:51:27;13.25;;;7.47;;
25583;SDS011;13463;51.526;9.928;2024-01-30T04:53:54;13.98;;;7.85;;
25583;SDS011;13463;51.526;9.928;2024-01-30T04:56:20;12.85;;;7.82;;
25583;SDS011;13463;51.526;9.928;2024-01-30T04:58:47;10.45;;;7.93;;
25583;SDS011;13463;51.526;9.928;2024-01-30T05:01:16;12.82;;;7.95;;
25583;SDS011;13463;51.526;9.928;2024-01-30T05:03:43;12.77;;;8.52;;
25583;SDS011;13463;51.526;9.928;2024-01-30T05:06:10;13.80;;;7.82;;
25583;SDS011;13463;51.526;9.928;2024-01-30T05:08:37;13.60;;;8.18;;
25583;SDS011;13463;51.526;9.928;2024-01-30T05:11:07;13.35;;;7.88;;
25583;SDS011;13463;51.526;9.928;2024-01-30T05:13:33;11.75;;;7.88;;
25583;SDS011;13463;51.526;9.928;2024-01-30T05:16:01;15.52;;;8.02;;
25583;SDS011;13463;51.526;9.928;2024-01-30T05:18:29;15.52;;;7.65;;
25583;SDS011;13463;51.526;9.928;2024-01-30T05:20:56;16.27;;;8.45;;
25583;SDS011;13463;51.526;9.928;2024-01-30T05:23:23;9.75;;;6.95;;
25583;SDS011;13463;51.526;9.928;2024-01-30T05:25:49;11.68;;;7.25;;
25583;SDS011;13463;51.526;9.928;2024-01-30T05:28:16;13.43;;;7.60;;
25583;SDS011;13463;51.526;9.928;2024-01-30T05:30:42;12.32;;;6.97;;
25583;SDS011;13463;51.526;9.928;2024-01-30T05:33:09;12.38;;;6.45;;
25583;SDS011;13463;51.526;9.928;2024-01-30T05:35:36;12.25;;;7.80;;
25583;SDS011;13463;51.526;9.928;2024-01-30T05:38:03;12.65;;;7.18;;
25583;SDS011;13463;51.526;9.928;2024-01-30T05:40:30;14.18;;;7.72;;
25583;SDS011;13463;51.526;9.928;2024-01-30T05:42:57;13.13;;;8.07;;
25583;SDS011;13463;51.526;9.928;2024-01-30T05:45:27;9.93;;;7.50;;
25583;SDS011;13463;51.526;9.928;2024-01-30T05:47:54;16.25;;;7.93;;
25583;SDS011;13463;51.526;9.928;2024-01-30T05:50:21;13.55;;;7.50;;
25583;SDS011;13463;51.526;9.928;2024-01-30T05:52:49;13.07;;;7.28;;
25583;SDS011;13463;51.526;9.928;2024-01-30T05:55:16;12.40;;;7.22;;
25583;SDS011;13463;51.526;9.928;2024-01-30T05:57:42;12.95;;;7.13;;
25583;SDS011;13463;51.526;9.928;2024-01-30T06:00:09;9.00;;;6.78;;
25583;SDS011;13463;51.526;9.928;2024-01-30T06:02:36;13.50;;;7.25;;
25583;SDS011;13463;51.526;9.928;2024-01-30T06:05:03;12.43;;;7.85;;
25583;SDS011;13463;51.526;9.928;2024-01-30T06:07:29;13.98;;;7.53;;
25583;SDS011;13463;51.526;9.928;2024-01-30T06:10:02;16.05;;;7.68;;
25583;SDS011;13463;51.526;9.928;2024-01-30T06:12:29;12.98;;;7.55;;
25583;SDS011;13463;51.526;9.928;2024-01-30T06:14:56;13.02;;;7.20;;
25583;SDS011;13463;51.526;9.928;2024-01-30T06:17:23;11.73;;;6.82;;
25583;SDS011;13463;51.526;9.928;2024-01-30T06:19:50;10.48;;;7.50;;
25583;SDS011;13463;51.526;9.928;2024-01-30T06:22:16;11.50;;;7.43;;
25583;SDS011;13463;51.526;9.928;2024-01-30T06:24:43;11.68;;;6.80;;
25583;SDS011;13463;51.526;9.928;2024-01-30T06:27:11;10.85;;;7.13;;
25583;SDS011;13463;51.526;9.928;2024-01-30T06:29:38;11.32;;;6.60;;
25583;SDS011;13463;51.526;9.928;2024-01-30T06:32:04;9.88;;;7.28;;
25583;SDS011;13463;51.526;9.928;2024-01-30T06:34:31;11.02;;;6.93;;
25583;SDS011;13463;51.526;9.928;2024-01-30T06:36:58;13.20;;;7.50;;
25583;SDS011;13463;51.526;9.928;2024-01-30T06:39:25;10.35;;;6.72;;
25583;SDS011;13463;51.526;9.928;2024-01-30T06:41:52;8.18;;;6.40;;
25583;SDS011;13463;51.526;9.928;2024-01-30T06:44:19;10.52;;;6.50;;
25583;SDS011;13463;51.526;9.928;2024-01-30T06:46:45;13.35;;;7.22;;
25583;SDS011;13463;51.526;9.928;2024-01-30T06:49:12;9.35;;;6.72;;
25583;SDS011;13463;51.526;9.928;2024-01-30T06:51:38;12.35;;;7.55;;
25583;SDS011;13463;51.526;9.928;2024-01-30T06:54:05;11.82;;;7.40;;
25583;SDS011;13463;51.526;9.928;2024-01-30T06:56:31;11.63;;;7.68;;
25583;SDS011;13463;51.526;9.928;2024-01-30T06:58:58;12.45;;;6.97;;
25583;SDS011;13463;51.526;9.928;2024-01-30T07:01:29;10.48;;;7.28;;
25583;SDS011;13463;51.526;9.928;2024-01-30T07:03:56;9.73;;;7.05;;
25583;SDS011;13463;51.526;9.928;2024-01-30T07:06:24;12.57;;;7.60;;
25583;SDS011;13463;51.526;9.928;2024-01-30T07:08:51;11.05;;;6.55;;
25583;SDS011;13463;51.526;9.928;2024-01-30T07:11:20;10.63;;;7.75;;
25583;SDS011;13463;51.526;9.928;2024-01-30T07:13:51;11.57;;;7.07;;
25583;SDS011;13463;51.526;9.928;2024-01-30T07:16:18;11.35;;;7.15;;
25583;SDS011;13463;51.526;9.928;2024-01-30T07:18:44;11.65;;;6.80;;
25583;SDS011;13463;51.526;9.928;2024-01-30T07:21:11;12.73;;;7.07;;
25583;SDS011;13463;51.526;9.928;2024-01-30T07:23:38;13.38;;;7.78;;
25583;SDS011;13463;51.526;9.928;2024-01-30T07:26:05;13.68;;;7.88;;
25583;SDS011;13463;51.526;9.928;2024-01-30T07:28:33;11.48;;;7.57;;
25583;SDS011;13463;51.526;9.928;2024-01-30T07:31:00;15.82;;;7.95;;
25583;SDS011;13463;51.526;9.928;2024-01-30T07:33:27;11.75;;;6.93;;
25583;SDS011;13463;51.526;9.928;2024-01-30T07:35:53;8.68;;;6.45;;
25583;SDS011;13463;51.526;9.928;2024-01-30T07:38:20;13.32;;;6.85;;
25583;SDS011;13463;51.526;9.928;2024-01-30T07:40:46;12.48;;;6.88;;
25583;SDS011;13463;51.526;9.928;2024-01-30T07:43:13;15.65;;;7.88;;
25583;SDS011;13463;51.526;9.928;2024-01-30T07:45:40;9.20;;;6.88;;
25583;SDS011;13463;51.526;9.928;2024-01-30T07:48:07;9.77;;;6.53;;
25583;SDS011;13463;51.526;9.928;2024-01-30T07:50:34;13.88;;;6.75;;
25583;SDS011;13463;51.526;9.928;2024-01-30T07:53:01;13.95;;;7.15;;
25583;SDS011;13463;51.526;9.928;2024-01-30T07:55:28;13.10;;;6.20;;
25583;SDS011;13463;51.526;9.928;2024-01-30T08:01:27;11.77;;;6.90;;
25583;SDS011;13463;51.526;9.928;2024-01-30T08:03:54;9.52;;;5.90;;
25583;SDS011;13463;51.526;9.928;2024-01-30T08:06:20;12.98;;;7.38;;
25583;SDS011;13463;51.526;9.928;2024-01-30T08:08:47;10.85;;;7.07;;
25583;SDS011;13463;51.526;9.928;2024-01-30T08:11:13;10.13;;;6.60;;
25583;SDS011;13463;51.526;9.928;2024-01-30T08:13:40;9.30;;;6.05;;
25583;SDS011;13463;51.526;9.928;2024-01-30T08:16:07;10.00;;;7.78;;
25583;SDS011;13463;51.526;9.928;2024-01-30T08:18:35;10.27;;;6.22;;
25583;SDS011;13463;51.526;9.928;2024-01-30T08:21:02;11.45;;;8.02;;
25583;SDS011;13463;51.526;9.928;2024-01-30T08:23:28;9.45;;;6.18;;
25583;SDS011;13463;51.526;9.928;2024-01-30T08:25:55;9.52;;;6.40;;
25583;SDS011;13463;51.526;9.928;2024-01-30T08:28:21;11.85;;;6.32;;
25583;SDS011;13463;51.526;9.928;2024-01-30T08:30:48;10.68;;;6.93;;
25583;SDS011;13463;51.526;9.928;2024-01-30T08:33:15;11.45;;;6.50;;
25583;SDS011;13463;51.526;9.928;2024-01-30T08:35:44;11.23;;;6.65;;
25583;SDS011;13463;51.526;9.928;2024-01-30T08:38:11;11.05;;;6.80;;
25583;SDS011;13463;51.526;9.928;2024-01-30T08:40:38;13.15;;;6.38;;
25583;SDS011;13463;51.526;9.928;2024-01-30T08:43:05;11.25;;;7.05;;
25583;SDS011;13463;51.526;9.928;2024-01-30T08:45:32;11.88;;;6.82;;
25583;SDS011;13463;51.526;9.928;2024-01-30T08:47:58;10.15;;;6.22;;
25583;SDS011;13463;51.526;9.928;2024-01-30T08:50:25;10.55;;;6.93;;
25583;SDS011;13463;51.526;9.928;2024-01-30T08:52:51;10.80;;;7.03;;
25583;SDS011;13463;51.526;9.928;2024-01-30T08:55:18;13.32;;;6.95;;
25583;SDS011;13463;51.526;9.928;2024-01-30T08:57:45;10.32;;;7.32;;
25583;SDS011;13463;51.526;9.928;2024-01-30T09:00:11;10.45;;;6.88;;
25583;SDS011;13463;51.526;9.928;2024-01-30T09:02:38;12.80;;;6.47;;
25583;SDS011;13463;51.526;9.928;2024-01-30T09:05:05;13.00;;;7.45;;
25583;SDS011;13463;51.526;9.928;2024-01-30T09:07:32;8.95;;;6.68;;
25583;SDS011;13463;51.526;9.928;2024-01-30T09:09:59;9.43;;;6.30;;
25583;SDS011;13463;51.526;9.928;2024-01-30T09:12:25;14.45;;;7.20;;
25583;SDS011;13463;51.526;9.928;2024-01-30T09:14:52;13.32;;;7.05;;
25583;SDS011;13463;51.526;9.928;2024-01-30T09:17:19;12.13;;;7.28;;
25583;SDS011;13463;51.526;9.928;2024-01-30T09:19:46;11.07;;;6.95;;
25583;SDS011;13463;51.526;9.928;2024-01-30T09:22:13;12.80;;;6.95;;
25583;SDS011;13463;51.526;9.928;2024-01-30T09:24:39;12.20;;;6.28;;
25583;SDS011;13463;51.526;9.928;2024-01-30T09:27:06;10.57;;;7.07;;
25583;SDS011;13463;51.526;9.928;2024-01-30T09:29:33;11.23;;;6.35;;
25583;SDS011;13463;51.526;9.928;2024-01-30T09:32:02;14.40;;;7.20;;
25583;SDS011;13463;51.526;9.928;2024-01-30T09:34:30;9.52;;;6.82;;
25583;SDS011;13463;51.526;9.928;2024-01-30T09:36:58;11.63;;;7.25;;
25583;SDS011;13463;51.526;9.928;2024-01-30T09:39:26;12.15;;;7.15;;
25583;SDS011;13463;51.526;9.928;2024-01-30T09:41:56;10.80;;;6.75;;
25583;SDS011;13463;51.526;9.928;2024-01-30T09:44:31;10.07;;;6.47;;
25583;SDS011;13463;51.526;9.928;2024-01-30T09:47:02;10.93;;;6.80;;
25583;SDS011;13463;51.526;9.928;2024-01-30T09:49:32;9.75;;;7.63;;
25583;SDS011;13463;51.526;9.928;2024-01-30T09:52:00;10.27;;;7.18;;
25583;SDS011;13463;51.526;9.928;2024-01-30T09:54:28;11.50;;;6.80;;
25583;SDS011;13463;51.526;9.928;2024-01-30T09:57:01;10.43;;;6.70;;
25583;SDS011;13463;51.526;9.928;2024-01-30T09:59:28;9.75;;;6.47;;
25583;SDS011;13463;51.526;9.928;2024-01-30T10:01:54;11.27;;;7.13;;
25583;SDS011;13463;51.526;9.928;2024-01-30T10:04:23;13.45;;;7.18;;
25583;SDS011;13463;51.526;9.928;2024-01-30T10:06:50;13.15;;;7.82;;
25583;SDS011;13463;51.526;9.928;2024-01-30T10:09:17;13.80;;;7.75;;
25583;SDS011;13463;51.526;9.928;2024-01-30T10:11:43;10.18;;;6.97;;
25583;SDS011;13463;51.526;9.928;2024-01-30T10:14:10;11.10;;;7.22;;
25583;SDS011;13463;51.526;9.928;2024-01-30T10:16:37;9.35;;;7.22;;
25583;SDS011;13463;51.526;9.928;2024-01-30T10:19:03;8.75;;;6.22;;
25583;SDS011;13463;51.526;9.928;2024-01-30T10:21:30;9.50;;;7.28;;
25583;SDS011;13463;51.526;9.928;2024-01-30T10:23:57;7.95;;;6.35;;
25583;SDS011;13463;51.526;9.928;2024-01-30T10:26:24;11.45;;;7.22;;
25583;SDS011;13463;51.526;9.928;2024-01-30T10:28:50;10.98;;;7.32;;
25583;SDS011;13463;51.526;9.928;2024-01-30T10:31:18;15.10;;;7.57;;
25583;SDS011;13463;51.526;9.928;2024-01-30T10:33:47;8.65;;;6.70;;
25583;SDS011;13463;51.526;9.928;2024-01-30T10:36:14;10.48;;;6.57;;
25583;SDS011;13463;51.526;9.928;2024-01-30T10:38:46;9.13;;;6.63;;
25583;SDS011;13463;51.526;9.928;2024-01-30T10:41:18;9.65;;;6.90;;
25583;SDS011;13463;51.526;9.928;2024-01-30T10:43:50;10.45;;;6.30;;
25583;SDS011;13463;51.526;9.928;2024-01-30T10:46:29;11.88;;;6.10;;
25583;SDS011;13463;51.526;9.928;2024-01-30T10:48:58;10.60;;;6.70;;
25583;SDS011;13463;51.526;9.928;2024-01-30T10:51:26;10.65;;;6.03;;
25583;SDS011;13463;51.526;9.928;2024-01-30T10:53:54;13.02;;;6.72;;
25583;SDS011;13463;51.526;9.928;2024-01-30T10:56:22;10.10;;;6.28;;
25583;SDS011;13463;51.526;9.928;2024-01-30T10:58:52;11.02;;;6.97;;
25583;SDS011;13463;51.526;9.928;2024-01-30T11:01:20;9.75;;;6.13;;
25583;SDS011;13463;51.526;9.928;2024-01-30T11:03:51;9.75;;;6.43;;
25583;SDS011;13463;51.526;9.928;2024-01-30T11:06:22;9.32;;;6.15;;
25583;SDS011;13463;51.526;9.928;2024-01-30T11:14:16;12.77;;;6.25;;
25583;SDS011;13463;51.526;9.928;2024-01-30T11:16:49;12.60;;;6.70;;
25583;SDS011;13463;51.526;9.928;2024-01-30T11:19:15;12.50;;;7.13;;
25583;SDS011;13463;51.526;9.928;2024-01-30T11:21:50;9.55;;;6.28;;
25583;SDS011;13463;51.526;9.928;2024-01-30T11:24:20;10.75;;;7.18;;
25583;SDS011;13463;51.526;9.928;2024-01-30T11:26:50;11.05;;;6.57;;
25583;SDS011;13463;51.526;9.928;2024-01-30T11:29:27;7.65;;;5.80;;
25583;SDS011;13463;51.526;9.928;2024-01-30T11:31:55;21.52;;;6.45;;
25583;SDS011;13463;51.526;9.928;2024-01-30T11:34:23;11.30;;;6.30;;
25583;SDS011;13463;51.526;9.928;2024-01-30T11:36:57;9.50;;;6.07;;
25583;SDS011;13463;51.526;9.928;2024-01-30T11:39:26;9.20;;;6.20;;
25583;SDS011;13463;51.526;9.928;2024-01-30T11:41:53;8.88;;;6.20;;
25583;SDS011;13463;51.526;9.928;2024-01-30T11:44:20;8.98;;;6.47;;
25583;SDS011;13463;51.526;9.928;2024-01-30T11:46:48;8.43;;;6.22;;
25583;SDS011;13463;51.526;9.928;2024-01-30T11:49:18;9.10;;;6.65;;
25583;SDS011;13463;51.526;9.928;2024-01-30T11:51:45;10.32;;;5.88;;
25583;SDS011;13463;51.526;9.928;2024-01-30T11:54:12;9.32;;;6.18;;
25583;SDS011;13463;51.526;9.928;2024-01-30T11:56:40;10.43;;;6.05;;
25583;SDS011;13463;51.526;9.928;2024-01-30T11:59:06;11.80;;;7.00;;
25583;SDS011;13463;51.526;9.928;2024-01-30T12:01:33;8.95;;;6.28;;
25583;SDS011;13463;51.526;9.928;2024-01-30T12:04:00;10.27;;;6.85;;
25583;SDS011;13463;51.526;9.928;2024-01-30T12:06:27;11.30;;;6.82;;
25583;SDS011;13463;51.526;9.928;2024-01-30T12:11:23;8.60;;;6.75;;
25583;SDS011;13463;51.526;9.928;2024-01-30T12:13:53;13.70;;;6.45;;
25583;SDS011;13463;51.526;9.928;2024-01-30T12:16:20;13.00;;;6.13;;
25583;SDS011;13463;51.526;9.928;2024-01-30T12:18:47;8.98;;;6.28;;
25583;SDS011;13463;51.526;9.928;2024-01-30T12:21:17;9.30;;;6.67;;
25583;SDS011;13463;51.526;9.928;2024-01-30T12:23:44;10.32;;;6.28;;
25583;SDS011;13463;51.526;9.928;2024-01-30T12:26:11;8.98;;;6.63;;
25583;SDS011;13463;51.526;9.928;2024-01-30T12:28:47;7.85;;;6.47;;
25583;SDS011;13463;51.526;9.928;2024-01-30T12:31:15;10.50;;;5.78;;
25583;SDS011;13463;51.526;9.928;2024-01-30T12:33:42;12.70;;;6.15;;
25583;SDS011;13463;51.526;9.928;2024-01-30T12:36:08;10.27;;;6.53;;
25583;SDS011;13463;51.526;9.928;2024-01-30T12:38:35;10.95;;;6.20;;
25583;SDS011;13463;51.526;9.928;2024-01-30T12:41:02;9.82;;;6.30;;
25583;SDS011;13463;51.526;9.928;2024-01-30T12:43:29;10.00;;;6.57;;
25583;SDS011;13463;51.526;9.928;2024-01-30T12:46:04;12.40;;;7.03;;
25583;SDS011;13463;51.526;9.928;2024-01-30T12:48:32;13.05;;;6.10;;
25583;SDS011;13463;51.526;9.928;2024-01-30T12:50:59;9.85;;;6.95;;
25583;SDS011;13463;51.526;9.928;2024-01-30T12:53:26;12.38;;;6.32;;
25583;SDS011;13463;51.526;9.928;2024-01-30T12:55:52;9.85;;;5.90;;
25583;SDS011;13463;51.526;9.928;2024-01-30T12:58:20;11.57;;;5.93;;
25583;SDS011;13463;51.526;9.928;2024-01-30T13:00:47;14.50;;;5.78;;
25583;SDS011;13463;51.526;9.928;2024-01-30T13:03:14;10.38;;;6.10;;
25583;SDS011;13463;51.526;9.928;2024-01-30T13:05:40;8.55;;;5.53;;
25583;SDS011;13463;51.526;9.928;2024-01-30T13:08:07;7.90;;;5.57;;
25583;SDS011;13463;51.526;9.928;2024-01-30T13:10:34;9.98;;;5.75;;
25583;SDS011;13463;51.526;9.928;2024-01-30T13:13:00;8.27;;;6.03;;
25583;SDS011;13463;51.526;9.928;2024-01-30T13:15:27;7.65;;;5.28;;
25583;SDS011;13463;51.526;9.928;2024-01-30T13:17:55;8.57;;;6.03;;
25583;SDS011;13463;51.526;9.928;2024-01-30T13:20:22;11.02;;;6.30;;
25583;SDS011;13463;51.526;9.928;2024-01-30T13:22:49;7.90;;;5.50;;
25583;SDS011;13463;51.526;9.928;2024-01-30T13:25:16;12.35;;;5.95;;
25583;SDS011;13463;51.526;9.928;2024-01-30T13:27:43;8.20;;;5.90;;
25583;SDS011;13463;51.526;9.928;2024-01-30T13:30:09;7.00;;;5.30;;
25583;SDS011;13463;51.526;9.928;2024-01-30T13:32:36;8.15;;;5.32;;
25583;SDS011;13463;51.526;9.928;2024-01-30T13:35:04;7.75;;;5.82;;
25583;SDS011;13463;51.526;9.928;2024-01-30T13:37:31;7.93;;;5.25;;
25583;SDS011;13463;51.526;9.928;2024-01-30T13:39:57;7.68;;;5.70;;
25583;SDS011;13463;51.526;9.928;2024-01-30T13:42:24;9.32;;;5.00;;
25583;SDS011;13463;51.526;9.928;2024-01-30T13:44:51;7.85;;;4.97;;
25583;SDS011;13463;51.526;9.928;2024-01-30T13:47:18;6.65;;;5.13;;
25583;SDS011;13463;51.526;9.928;2024-01-30T13:49:45;10.98;;;5.85;;
25583;SDS011;13463;51.526;9.928;2024-01-30T13:52:12;7.68;;;5.65;;
25583;SDS011;13463;51.526;9.928;2024-01-30T13:54:40;8.75;;;5.70;;
25583;SDS011;13463;51.526;9.928;2024-01-30T13:57:07;9.07;;;4.80;;
25583;SDS011;13463;51.526;9.928;2024-01-30T13:59:34;5.85;;;4.80;;
25583;SDS011;13463;51.526;9.928;2024-01-30T14:02:01;11.10;;;5.68;;
25583;SDS011;13463;51.526;9.928;2024-01-30T14:04:28;7.75;;;5.45;;
25583;SDS011;13463;51.526;9.928;2024-01-30T14:06:55;7.45;;;5.45;;
25583;SDS011;13463;51.526;9.928;2024-01-30T14:09:30;7.38;;;5.20;;
25583;SDS011;13463;51.526;9.928;2024-01-30T14:11:58;6.68;;;5.00;;
25583;SDS011;13463;51.526;9.928;2024-01-30T14:14:25;11.45;;;5.18;;
25583;SDS011;13463;51.526;9.928;2024-01-30T14:16:51;6.88;;;4.95;;
25583;SDS011;13463;51.526;9.928;2024-01-30T14:19:18;7.57;;;4.80;;
25583;SDS011;13463;51.526;9.928;2024-01-30T14:21:45;10.75;;;5.80;;
25583;SDS011;13463;51.526;9.928;2024-01-30T14:24:11;7.85;;;4.82;;
25583;SDS011;13463;51.526;9.928;2024-01-30T14:26:38;11.13;;;5.53;;
25583;SDS011;13463;51.526;9.928;2024-01-30T14:29:04;16.85;;;6.75;;
25583;SDS011;13463;51.526;9.928;2024-01-30T14:31:31;20.00;;;6.30;;
25583;SDS011;13463;51.526;9.928;2024-01-30T14:33:58;13.15;;;5.95;;
25583;SDS011;13463;51.526;9.928;2024-01-30T14:36:26;16.25;;;6.25;;
25583;SDS011;13463;51.526;9.928;2024-01-30T14:38:54;10.63;;;5.35;;
25583;SDS011;13463;51.526;9.928;2024-01-30T14:41:21;11.57;;;5.88;;
25583;SDS011;13463;51.526;9.928;2024-01-30T14:43:48;11.02;;;5.65;;
25583;SDS011;13463;51.526;9.928;2024-01-30T14:46:15;8.40;;;6.43;;